Time;durP1;ratioP1;P1;durP2;ratioP2;P2;SDS_P1;SDS_P2;PMS_P1;PMS_P2;Temp;Humidity;BMP_temperature;BMP_pressure;BME280_temperature;BME280_humidity;BME280_pressure;Samples;Min_cycle;Max_cycle;Signal;HPM_P1;HPM_P2
2022/05/15 00:02:07;;;;;;;29.13;8.95;;;10.30;99.90;;;;;;5073180;28;20472;-76
2022/05/15 00:04:34;;;;;;;32.63;9.50;;;10.20;99.90;;;;;;5069469;28;20048;-76
2022/05/15 00:06:59;;;;;;;27.20;8.90;;;10.20;99.90;;;;;;5056049;28;20106;-76
2022/05/15 00:09:25;;;;;;;38.03;9.95;;;10.20;99.90;;;;;;5073311;28;20044;-74
2022/05/15 00:11:51;;;;;;;30.60;9.38;;;10.20;99.90;;;;;;5073087;28;20048;-75
2022/05/15 00:14:17;;;;;;;24.45;8.15;;;10.20;99.90;;;;;;5072987;28;20040;-75
2022/05/15 00:16:43;;;;;;;25.67;8.07;;;10.20;99.90;;;;;;5073075;28;20055;-75
2022/05/15 00:19:09;;;;;;;17.92;7.15;;;10.10;99.90;;;;;;5073200;28;20044;-76
2022/05/15 00:21:36;;;;;;;20.77;7.65;;;10.10;99.90;;;;;;5055389;28;20047;-74
2022/05/15 00:24:04;;;;;;;21.10;8.07;;;10.00;99.90;;;;;;5072899;28;20469;-77
2022/05/15 00:26:31;;;;;;;23.48;7.63;;;9.80;99.90;;;;;;5055477;28;20044;-74
2022/05/15 00:28:58;;;;;;;24.45;7.75;;;9.60;99.90;;;;;;5055357;28;20082;-75
2022/05/15 00:31:24;;;;;;;24.42;7.57;;;9.40;99.90;;;;;;5055344;28;20053;-75
2022/05/15 00:33:50;;;;;;;21.40;7.60;;;9.30;99.90;;;;;;5055303;28;20115;-75
2022/05/15 00:36:16;;;;;;;23.77;7.97;;;9.30;99.90;;;;;;5072648;28;20075;-76
2022/05/15 00:38:42;;;;;;;19.33;7.63;;;9.30;99.90;;;;;;5072702;28;20491;-76
2022/05/15 00:41:09;;;;;;;27.88;9.30;;;9.20;99.90;;;;;;5072452;28;20052;-75
2022/05/15 00:43:41;;;;;;;24.98;8.18;;;9.20;99.90;;;;;;5071823;28;20036;-75
2022/05/15 00:46:13;;;;;;;20.58;8.48;;;9.10;99.90;;;;;;5055228;28;20044;-75
2022/05/15 00:48:39;;;;;;;21.77;7.68;;;9.10;99.90;;;;;;5055273;28;20052;-76
2022/05/15 00:51:15;;;;;;;21.88;8.55;;;9.10;99.90;;;;;;5072221;28;20103;-75
2022/05/15 00:53:42;;;;;;;17.40;7.95;;;9.10;99.90;;;;;;5054963;28;20048;-74
2022/05/15 00:56:11;;;;;;;30.45;8.70;;;9.10;99.90;;;;;;5072018;28;20075;-75
2022/05/15 00:58:43;;;;;;;25.25;8.68;;;9.10;99.90;;;;;;5072556;28;20036;-74
2022/05/15 01:01:09;;;;;;;25.58;7.68;;;9.10;99.90;;;;;;5072320;28;20110;-75
2022/05/15 01:03:35;;;;;;;28.50;8.50;;;9.10;99.90;;;;;;5072240;28;20048;-74
2022/05/15 01:06:01;;;;;;;18.67;7.53;;;9.10;99.90;;;;;;5072176;28;20040;-77
2022/05/15 01:08:28;;;;;;;23.45;7.38;;;9.10;99.90;;;;;;5072174;28;20053;-73
2022/05/15 01:10:58;;;;;;;23.35;8.10;;;9.00;99.90;;;;;;5071934;28;20470;-76
2022/05/15 01:13:27;;;;;;;23.52;8.48;;;9.00;99.90;;;;;;5072503;28;20143;-75
2022/05/15 01:15:52;;;;;;;22.25;8.85;;;8.90;99.90;;;;;;5072097;28;20068;-76
2022/05/15 01:18:27;;;;;;;33.72;9.80;;;8.90;99.90;;;;;;5072147;28;20041;-75
2022/05/15 01:20:56;;;;;;;27.33;10.18;;;8.90;99.90;;;;;;5054639;28;20056;-75
2022/05/15 01:23:23;;;;;;;26.90;9.23;;;8.90;99.90;;;;;;5071549;28;20219;-74
2022/05/15 01:25:49;;;;;;;10.40;4.18;;;8.90;99.90;;;;;;5072297;28;20119;-76
2022/05/15 01:28:22;;;;;;;10.70;4.50;;;9.00;99.90;;;;;;5072027;28;20492;-74
2022/05/15 01:30:54;;;;;;;10.05;4.72;;;9.00;99.90;;;;;;5071957;28;20070;-75
2022/05/15 01:33:21;;;;;;;8.93;3.67;;;8.90;99.90;;;;;;5071972;28;20040;-75
2022/05/15 01:35:47;;;;;;;12.43;5.50;;;8.80;99.90;;;;;;5071801;28;20086;-76
2022/05/15 01:38:13;;;;;;;17.15;5.93;;;8.70;99.90;;;;;;5072260;28;20036;-75
2022/05/15 01:40:40;;;;;;;17.42;6.38;;;8.60;99.90;;;;;;5054681;28;20041;-75
2022/05/15 01:43:06;;;;;;;15.48;5.95;;;8.60;99.90;;;;;;5071965;28;20052;-75
2022/05/15 01:45:33;;;;;;;10.05;5.00;;;8.50;99.90;;;;;;5072088;28;20145;-74
2022/05/15 01:47:58;;;;;;;14.13;5.90;;;8.40;99.90;;;;;;5071793;28;20044;-74
2022/05/15 01:50:24;;;;;;;15.88;6.55;;;8.30;99.90;;;;;;5054145;28;20064;-74
2022/05/15 01:52:50;;;;;;;17.73;6.65;;;8.30;99.90;;;;;;5054144;28;20044;-76
2022/05/15 01:55:16;;;;;;;16.55;6.47;;;8.20;99.90;;;;;;5072582;28;20070;-76
2022/05/15 01:57:42;;;;;;;18.40;7.13;;;8.10;99.90;;;;;;5075800;28;20052;-74
2022/05/15 02:00:12;;;;;;;16.88;6.15;;;8.10;99.90;;;;;;5075778;28;20040;-74
2022/05/15 02:02:39;;;;;;;16.15;7.15;;;8.10;99.90;;;;;;5075478;28;20377;-75
2022/05/15 02:05:06;;;;;;;17.83;7.78;;;8.10;99.90;;;;;;5075446;28;20090;-74
2022/05/15 02:07:33;;;;;;;14.05;7.20;;;8.10;99.90;;;;;;5075502;28;20349;-75
2022/05/15 02:09:59;;;;;;;18.98;8.27;;;8.10;99.90;;;;;;5075436;28;20041;-74
2022/05/15 02:12:24;;;;;;;19.73;7.57;;;8.10;99.90;;;;;;5057836;28;20123;-75
2022/05/15 02:14:50;;;;;;;13.30;6.95;;;8.10;99.90;;;;;;5058036;28;20094;-75
2022/05/15 02:17:16;;;;;;;18.02;9.63;;;8.10;99.90;;;;;;5075137;28;20044;-76
2022/05/15 02:19:42;;;;;;;17.83;7.38;;;8.10;99.90;;;;;;5058062;28;20040;-76
2022/05/15 02:22:07;;;;;;;19.15;7.20;;;8.10;99.90;;;;;;5075013;28;20476;-75
2022/05/15 02:24:33;;;;;;;16.77;7.35;;;8.00;99.90;;;;;;5075249;28;20119;-75
2022/05/15 02:26:59;;;;;;;17.60;8.20;;;8.00;99.90;;;;;;5074909;28;20052;-75
2022/05/15 02:29:25;;;;;;;22.45;9.80;;;8.00;99.90;;;;;;5057834;28;20123;-76
2022/05/15 02:31:50;;;;;;;18.50;8.05;;;8.00;99.90;;;;;;5074766;28;20040;-75
2022/05/15 02:34:16;;;;;;;26.33;8.68;;;7.90;99.90;;;;;;5057812;28;20048;-75
2022/05/15 02:36:42;;;;;;;16.75;8.18;;;8.00;99.90;;;;;;5057642;28;20040;-74
2022/05/15 02:39:08;;;;;;;19.30;8.85;;;7.90;99.90;;;;;;5074927;28;20362;-75
2022/05/15 02:41:34;;;;;;;18.13;8.23;;;7.90;99.90;;;;;;5074865;28;20153;-76
2022/05/15 02:44:00;;;;;;;17.77;8.68;;;7.90;99.90;;;;;;5074821;28;20046;-75
2022/05/15 02:46:26;;;;;;;21.13;8.50;;;7.90;99.90;;;;;;5074751;28;20044;-75
2022/05/15 02:51:36;;;;;;;14.20;7.50;;;7.90;99.90;;;;;;5074961;28;20060;-76
2022/05/15 02:54:02;;;;;;;17.25;7.88;;;7.80;99.90;;;;;;5057103;28;20044;-75
2022/05/15 02:56:31;;;;;;;15.73;8.00;;;7.90;99.90;;;;;;5074598;28;20059;-76
2022/05/15 02:58:57;;;;;;;13.93;6.93;;;7.80;99.90;;;;;;5074324;28;20511;-75
2022/05/15 03:01:22;;;;;;;15.20;8.10;;;7.80;99.90;;;;;;5074763;28;20201;-75
2022/05/15 03:03:48;;;;;;;16.65;7.75;;;7.80;99.90;;;;;;5074661;28;20431;-75
2022/05/15 03:06:16;;;;;;;14.15;7.38;;;7.80;99.90;;;;;;5074367;28;20044;-75
2022/05/15 03:08:44;;;;;;;20.90;7.72;;;7.80;99.90;;;;;;5073674;28;20106;-75
2022/05/15 03:11:11;;;;;;;15.07;6.43;;;7.80;99.90;;;;;;5074194;28;20174;-74
2022/05/15 03:13:37;;;;;;;10.02;6.78;;;7.70;99.90;;;;;;5074066;28;20048;-75
2022/05/15 03:16:05;;;;;;;17.10;7.45;;;7.70;99.90;;;;;;5057189;28;20109;-76
2022/05/15 03:18:31;;;;;;;13.35;6.13;;;7.70;99.90;;;;;;5074369;28;20040;-75
2022/05/15 03:20:57;;;;;;;16.60;8.15;;;7.60;99.90;;;;;;5074183;28;20442;-75
2022/05/15 03:23:23;;;;;;;18.35;7.28;;;7.60;99.90;;;;;;5070936;28;20067;-74
2022/05/15 03:25:49;;;;;;;18.23;7.53;;;7.70;99.90;;;;;;5056785;28;20067;-76
2022/05/15 03:28:15;;;;;;;17.77;7.25;;;7.70;99.90;;;;;;5073871;28;20457;-76
2022/05/15 03:30:43;;;;;;;19.73;7.53;;;7.70;99.90;;;;;;5074300;28;20036;-75
2022/05/15 03:33:09;;;;;;;17.48;7.65;;;7.70;99.90;;;;;;5056310;28;20453;-76
2022/05/15 03:35:37;;;;;;;22.67;9.15;;;7.70;99.90;;;;;;5074104;28;20045;-75
2022/05/15 03:38:03;;;;;;;20.80;7.45;;;7.70;99.90;;;;;;5056232;28;20358;-75
2022/05/15 03:40:29;;;;;;;21.48;8.13;;;7.70;99.90;;;;;;5073905;28;20059;-76
2022/05/15 03:42:55;;;;;;;22.80;7.70;;;7.70;99.90;;;;;;5073690;28;20052;-74
2022/05/15 03:45:21;;;;;;;20.08;7.40;;;7.70;99.90;;;;;;5074078;28;20048;-74
2022/05/15 03:47:50;;;;;;;21.98;7.70;;;7.70;99.90;;;;;;5056372;28;20049;-75
2022/05/15 03:50:18;;;;;;;21.65;7.88;;;7.80;99.90;;;;;;5073524;28;20041;-75
2022/05/15 03:52:43;;;;;;;24.52;8.35;;;7.80;99.90;;;;;;5056034;28;20109;-76
2022/05/15 03:55:10;;;;;;;26.52;8.20;;;7.80;99.90;;;;;;5073450;28;20393;-75
2022/05/15 03:57:36;;;;;;;32.28;9.27;;;7.90;99.90;;;;;;5073114;28;20051;-75
2022/05/15 04:00:04;;;;;;;21.77;7.85;;;7.90;99.90;;;;;;5073538;28;20048;-75
2022/05/15 04:02:30;;;;;;;25.02;8.48;;;7.90;99.90;;;;;;5056145;28;20048;-75
2022/05/15 04:04:56;;;;;;;27.33;8.10;;;8.00;99.90;;;;;;5073237;28;20071;-75
2022/05/15 04:07:22;;;;;;;38.00;8.95;;;8.00;99.90;;;;;;5055960;28;20044;-76
2022/05/15 04:09:49;;;;;;;119.47;16.98;;;8.00;99.90;;;;;;5073124;28;20496;-75
2022/05/15 04:12:15;;;;;;;32.58;11.27;;;8.10;99.90;;;;;;5073006;28;20047;-76
2022/05/15 04:14:41;;;;;;;21.40;8.95;;;8.10;99.90;;;;;;5073269;28;20048;-76
2022/05/15 04:17:08;;;;;;;26.55;8.85;;;8.10;99.90;;;;;;5073240;28;20044;-75
2022/05/15 04:19:35;;;;;;;34.25;9.73;;;8.10;99.90;;;;;;5055576;28;20055;-77
2022/05/15 04:22:04;;;;;;;31.65;10.02;;;8.20;99.90;;;;;;5072873;28;20076;-76
2022/05/15 04:24:32;;;;;;;25.90;9.50;;;8.20;99.90;;;;;;5073191;28;20044;-75
2022/05/15 04:27:00;;;;;;;33.22;10.23;;;8.30;99.90;;;;;;5073101;28;20358;-75
2022/05/15 04:29:26;;;;;;;33.90;9.48;;;8.40;99.90;;;;;;5055476;28;20076;-76
2022/05/15 04:31:56;;;;;;;30.10;10.05;;;8.40;99.90;;;;;;5072848;28;20091;-75
2022/05/15 04:34:29;;;;;;;30.85;10.70;;;8.50;99.90;;;;;;5072686;28;20331;-77
2022/05/15 04:36:55;;;;;;;33.90;10.27;;;8.50;99.90;;;;;;5072685;28;20477;-76
2022/05/15 04:39:22;;;;;;;29.48;9.00;;;8.60;99.90;;;;;;5072996;28;20123;-75
2022/05/15 04:41:50;;;;;;;34.13;11.20;;;8.70;99.90;;;;;;5055551;28;20140;-76
2022/05/15 04:44:17;;;;;;;21.73;7.55;;;8.80;99.90;;;;;;5072580;28;20044;-76
2022/05/15 04:46:43;;;;;;;32.97;9.18;;;8.80;99.90;;;;;;5072589;28;20083;-76
2022/05/15 04:49:09;;;;;;;31.10;10.20;;;8.90;99.90;;;;;;5072408;28;20450;-74
2022/05/15 04:51:35;;;;;;;34.20;9.65;;;8.90;99.90;;;;;;5072412;28;20663;-75
2022/05/15 04:54:00;;;;;;;37.67;10.23;;;9.00;99.90;;;;;;5054787;28;20058;-74
2022/05/15 04:56:26;;;;;;;24.40;9.20;;;9.10;99.90;;;;;;5072382;28;20056;-74
2022/05/15 04:58:52;;;;;;;23.45;8.18;;;9.20;99.90;;;;;;5055091;28;20048;-75
2022/05/15 05:01:18;;;;;;;27.85;9.30;;;9.30;99.90;;;;;;5055164;28;20048;-76
2022/05/15 05:03:44;;;;;;;27.67;8.98;;;9.40;99.90;;;;;;5072370;28;20521;-75
2022/05/15 05:06:11;;;;;;;24.52;8.95;;;9.40;99.90;;;;;;5055253;28;20498;-75
2022/05/15 05:08:37;;;;;;;25.05;8.40;;;9.50;99.90;;;;;;5072042;28;20352;-75
2022/05/15 05:11:02;;;;;;;33.17;9.65;;;9.70;99.90;;;;;;5072276;28;20040;-75
2022/05/15 05:13:29;;;;;;;25.90;9.48;;;9.80;99.90;;;;;;5072172;28;20445;-74
2022/05/15 05:15:54;;;;;;;27.20;8.85;;;9.90;99.90;;;;;;5054840;28;20054;-75
2022/05/15 05:18:20;;;;;;;28.63;8.15;;;9.90;99.90;;;;;;5072194;28;20424;-75
2022/05/15 05:20:47;;;;;;;26.33;8.25;;;10.10;99.90;;;;;;5072093;28;20125;-75
2022/05/15 05:23:13;;;;;;;33.70;10.05;;;10.20;99.90;;;;;;5071744;28;20052;-75
2022/05/15 05:25:39;;;;;;;30.63;8.80;;;10.30;99.90;;;;;;5054792;28;20126;-76
2022/05/15 05:28:05;;;;;;;25.88;8.40;;;10.40;99.90;;;;;;5072105;28;20041;-75
2022/05/15 05:30:32;;;;;;;29.15;9.30;;;10.50;99.90;;;;;;5054096;28;20522;-75
2022/05/15 05:32:58;;;;;;;28.33;8.48;;;10.70;99.90;;;;;;5054750;28;20123;-76
2022/05/15 05:35:25;;;;;;;24.55;7.63;;;10.80;99.90;;;;;;5071955;28;20123;-76
2022/05/15 05:37:52;;;;;;;24.48;8.27;;;10.90;99.90;;;;;;5054700;28;20131;-76
2022/05/15 05:40:20;;;;;;;29.25;9.10;;;11.10;99.90;;;;;;5072015;28;20126;-75
2022/05/15 05:42:45;;;;;;;25.45;7.97;;;11.20;99.90;;;;;;5071877;28;20079;-76
2022/05/15 05:45:12;;;;;;;26.80;8.10;;;11.30;99.90;;;;;;5071747;28;20415;-75
2022/05/15 05:47:38;;;;;;;29.02;8.80;;;11.50;99.90;;;;;;5071785;28;20076;-76
2022/05/15 05:50:09;;;;;;;21.35;7.45;;;11.60;99.90;;;;;;5071627;28;20041;-75
2022/05/15 05:52:39;;;;;;;25.80;8.27;;;11.70;99.90;;;;;;5072010;28;20362;-75
2022/05/15 05:55:07;;;;;;;29.53;8.60;;;11.90;99.90;;;;;;5054409;28;20052;-75
2022/05/15 05:57:33;;;;;;;26.85;7.32;;;12.00;99.90;;;;;;5071614;28;20109;-75
2022/05/15 05:59:58;;;;;;;33.22;7.85;;;12.20;99.90;;;;;;5071886;28;20131;-75
2022/05/15 06:02:25;;;;;;;27.95;8.38;;;12.30;99.90;;;;;;5054372;28;20123;-76
2022/05/15 06:04:51;;;;;;;18.88;6.68;;;12.40;99.90;;;;;;5071476;28;20048;-75
2022/05/15 06:07:24;;;;;;;20.02;7.40;;;12.60;99.90;;;;;;5054323;28;20052;-75
2022/05/15 06:09:52;;;;;;;23.10;6.35;;;12.80;99.90;;;;;;5071571;28;20123;-74
2022/05/15 06:12:22;;;;;;;29.67;7.85;;;12.90;99.90;;;;;;5071686;28;20516;-75
2022/05/15 06:14:48;;;;;;;26.20;7.82;;;13.00;99.90;;;;;;5054102;28;20055;-76
2022/05/15 06:17:14;;;;;;;24.80;7.20;;;13.20;99.90;;;;;;5071478;28;20044;-76
2022/05/15 06:19:40;;;;;;;21.95;6.28;;;13.40;99.90;;;;;;5054011;28;20349;-75
2022/05/15 06:22:07;;;;;;;25.60;7.22;;;13.60;99.90;;;;;;5071403;28;20052;-76
2022/05/15 06:24:33;;;;;;;22.95;7.13;;;13.80;99.90;;;;;;5071468;28;20064;-76
2022/05/15 06:27:03;;;;;;;23.42;6.07;;;14.00;99.90;;;;;;5072093;28;20049;-83
2022/05/15 06:29:30;;;;;;;;;;;14.20;99.90;;;;;;5055463;28;20072;-77
2022/05/15 06:31:55;;;;;;;22.23;5.63;;;14.40;99.90;;;;;;5064235;28;19924;-76
2022/05/15 06:34:25;;;;;;;19.23;6.35;;;14.80;99.90;;;;;;5053802;28;20056;-74
2022/05/15 06:36:51;;;;;;;24.80;6.30;;;15.10;99.90;;;;;;5071282;28;20044;-75
2022/05/15 06:39:17;;;;;;;24.23;5.65;;;15.40;99.90;;;;;;5070419;28;20416;-76
2022/05/15 06:41:43;;;;;;;27.08;6.28;;;15.60;99.90;;;;;;5070658;28;20048;-76
2022/05/15 06:44:10;;;;;;;24.85;6.65;;;15.80;99.90;;;;;;5066515;28;20096;-76
2022/05/15 06:46:35;;;;;;;14.02;5.25;;;16.00;99.90;;;;;;5074704;28;20110;-76
2022/05/15 06:49:01;;;;;;;16.55;6.20;;;16.00;99.90;;;;;;5074916;28;20366;-75
2022/05/15 06:51:27;;;;;;;15.35;5.88;;;16.20;99.90;;;;;;5075001;28;20044;-74
2022/05/15 06:53:53;;;;;;;23.77;6.13;;;16.40;99.90;;;;;;5057630;28;20356;-75
2022/05/15 06:59:03;;;;;;;14.10;4.88;;;16.70;99.90;;;;;;5075073;28;20060;-75
2022/05/15 07:01:30;;;;;;;18.75;5.28;;;17.10;99.90;;;;;;5074767;28;20040;-75
2022/05/15 07:03:56;;;;;;;18.50;4.97;;;17.20;99.90;;;;;;5074614;28;20190;-75
2022/05/15 07:06:22;;;;;;;14.57;4.93;;;17.50;99.90;;;;;;5078237;28;20495;-76
2022/05/15 07:08:48;;;;;;;16.25;5.05;;;17.60;99.90;;;;;;5059346;28;20039;-76
2022/05/15 07:11:14;;;;;;;17.70;4.90;;;17.70;99.90;;;;;;5074692;28;20036;-77
2022/05/15 07:13:40;;;;;;;20.35;5.22;;;17.80;99.90;;;;;;5071035;28;20052;-76
2022/05/15 07:16:06;;;;;;;17.42;5.20;;;18.00;99.90;;;;;;5057100;28;20426;-75
2022/05/15 07:18:32;;;;;;;14.75;4.50;;;18.30;99.90;;;;;;5086451;28;20468;-76
2022/05/15 07:20:59;;;;;;;16.75;4.20;;;18.50;99.90;;;;;;5094606;28;20345;-76
2022/05/15 07:23:26;;;;;;;14.35;4.10;;;18.60;99.90;;;;;;5094697;28;20055;-78
2022/05/15 07:25:54;;;;;;;17.75;3.78;;;18.70;99.90;;;;;;5094831;28;20044;-74
2022/05/15 07:28:19;;;;;;;14.52;4.28;;;18.90;99.90;;;;;;5094419;28;20071;-76
2022/05/15 07:30:45;;;;;;;14.57;4.07;;;19.10;99.90;;;;;;5094523;28;20453;-77
2022/05/15 07:33:11;;;;;;;14.80;4.43;;;19.10;99.90;;;;;;5094657;28;20047;-75
2022/05/15 07:35:37;;;;;;;15.98;4.28;;;19.40;99.90;;;;;;5094332;28;20105;-76
2022/05/15 07:38:02;;;;;;;9.07;3.70;;;19.60;99.90;;;;;;5094693;28;20066;-77
2022/05/15 07:40:28;;;;;;;13.88;4.50;;;19.70;99.90;;;;;;5094649;28;20047;-77
2022/05/15 07:42:54;;;;;;;13.57;3.80;;;19.90;99.90;;;;;;5094510;28;20040;-76
2022/05/15 07:45:20;;;;;;;12.80;4.40;;;20.10;99.90;;;;;;5094313;28;20040;-76
2022/05/15 07:47:46;;;;;;;12.45;3.65;;;20.30;99.90;;;;;;5094351;28;20400;-76
2022/05/15 07:50:13;;;;;;;11.27;4.07;;;20.30;99.90;;;;;;5076599;28;20051;-77
2022/05/15 07:52:39;;;;;;;14.55;3.95;;;20.40;99.90;;;;;;5094001;28;20097;-76
2022/05/15 07:55:06;;;;;;;15.48;4.47;;;20.50;99.90;;;;;;5092290;28;20039;-75
2022/05/15 07:57:34;;;;;;;17.83;4.57;;;20.60;99.90;;;;;;5073920;28;20452;-76
2022/05/15 08:00:05;;;;;;;10.70;4.10;;;20.80;99.90;;;;;;5073891;28;20384;-76
2022/05/15 08:02:31;;;;;;;15.57;4.13;;;20.90;99.70;;;;;;5056394;28;20366;-78
2022/05/15 08:10:26;;;;;;;15.73;4.43;;;21.30;99.60;;;;;;5073505;28;20087;-77
2022/05/15 08:12:51;;;;;;;11.15;4.05;;;21.40;98.60;;;;;;5073758;28;20041;-76
2022/05/15 08:15:17;;;;;;;13.98;3.97;;;21.60;98.80;;;;;;5073651;28;20047;-75
2022/05/15 08:17:43;;;;;;;13.95;4.45;;;21.80;97.30;;;;;;5073493;28;20465;-76
2022/05/15 08:23:37;;;;;;;13.98;4.20;;;22.10;94.20;;;;;;5073149;28;20122;-75
2022/05/15 08:25:45;;;;;;;16.27;3.85;;;22.20;93.40;;;;;;5067373;28;20130;-76
2022/05/15 08:28:11;;;;;;;12.65;3.97;;;22.30;93.30;;;;;;5055950;28;20044;-76
2022/05/15 08:30:37;;;;;;;19.75;4.97;;;22.30;91.70;;;;;;5073211;28;20047;-76
2022/05/15 08:33:04;;;;;;;16.85;4.18;;;22.40;90.30;;;;;;5073108;28;20040;-76
2022/05/15 08:35:30;;;;;;;16.45;4.38;;;22.50;90.20;;;;;;5073394;28;20036;-75
2022/05/15 08:37:57;;;;;;;14.48;4.45;;;22.70;90.30;;;;;;5073060;28;20048;-77
2022/05/15 08:40:32;;;;;;;16.45;3.92;;;22.80;86.20;;;;;;5073113;28;20044;-77
2022/05/15 08:42:59;;;;;;;13.57;4.05;;;22.80;87.80;;;;;;5073096;28;20055;-75
2022/05/15 08:45:30;;;;;;;19.40;4.97;;;22.70;86.30;;;;;;5073102;28;20040;-74
2022/05/15 08:48:05;;;;;;;13.18;4.68;;;22.60;86.50;;;;;;5072929;28;20047;-76
2022/05/15 08:50:39;;;;;;;10.20;3.53;;;22.70;84.60;;;;;;5055018;28;20449;-75
2022/05/15 08:53:14;;;;;;;15.65;4.47;;;23.00;87.30;;;;;;5072862;28;20052;-78
2022/05/15 08:55:49;;;;;;;15.18;4.13;;;23.20;84.00;;;;;;5072894;28;20036;-77
2022/05/15 08:58:46;;;;;;;15.93;4.80;;;23.40;79.60;;;;;;5073167;28;20044;-75
2022/05/15 09:01:15;;;;;;;12.80;3.83;;;23.60;81.90;;;;;;5064554;28;20075;-75
2022/05/15 09:03:41;;;;;;;11.60;3.50;;;23.60;76.80;;;;;;5072710;28;20040;-76
2022/05/15 09:06:32;;;;;;;13.15;3.85;;;23.60;76.90;;;;;;5071929;28;20468;-76
2022/05/15 09:09:29;;;;;;;14.52;4.47;;;23.60;73.70;;;;;;5055077;28;20044;-75
2022/05/15 09:12:16;;;;;;;11.57;3.90;;;23.80;76.60;;;;;;5052488;28;20458;-77
2022/05/15 09:15:00;;;;;;;13.82;4.57;;;24.00;71.90;;;;;;5052774;28;20048;-78
2022/05/15 09:17:45;;;;;;;16.45;4.13;;;24.10;72.60;;;;;;5052530;28;20123;-79
2022/05/15 09:20:28;;;;;;;21.17;5.00;;;24.10;69.90;;;;;;5052561;28;20172;-77
2022/05/15 09:23:20;;;;;;;17.60;4.65;;;24.10;72.10;;;;;;5052085;28;20068;-76
2022/05/15 09:25:58;;;;;;;15.52;4.38;;;24.30;71.00;;;;;;5041380;28;20142;-78
2022/05/15 09:28:28;;;;;;;14.38;4.55;;;24.50;70.30;;;;;;5052364;28;20048;-76
2022/05/15 09:31:03;;;;;;;11.40;3.95;;;24.50;69.00;;;;;;5052480;28;20045;-77
2022/05/15 09:33:51;;;;;;;13.77;5.47;;;24.70;69.40;;;;;;5052347;28;20029;-77
2022/05/15 09:36:22;;;;;;;18.05;4.80;;;24.80;69.10;;;;;;5034977;28;20041;-79
2022/05/15 09:39:10;;;;;;;12.75;4.50;;;24.90;67.10;;;;;;5052277;28;20106;-78
2022/05/15 09:44:35;;;;;;;19.20;4.65;;;24.80;65.70;;;;;;5034818;28;20063;-77
2022/05/15 09:47:16;;;;;;;11.57;4.07;;;24.90;65.60;;;;;;5051837;28;20048;-76
2022/05/15 09:49:42;;;;;;;14.60;4.80;;;25.00;63.60;;;;;;5052262;28;20051;-78
2022/05/15 09:52:15;;;;;;;17.65;4.63;;;25.00;65.30;;;;;;5051936;28;20040;-78
2022/05/15 09:54:45;;;;;;;14.55;3.78;;;25.00;65.00;;;;;;5051814;28;20454;-77
2022/05/15 09:57:13;;;;;;;13.15;4.53;;;25.20;64.80;;;;;;5053579;28;20040;-78
2022/05/15 09:59:40;;;;;;;13.05;4.10;;;25.30;62.60;;;;;;5072155;28;20036;-77
2022/05/15 10:02:15;;;;;;;16.48;4.78;;;25.40;62.30;;;;;;5054278;28;20044;-78
2022/05/15 10:04:41;;;;;;;11.77;4.28;;;25.60;62.80;;;;;;5072172;28;20044;-77
2022/05/15 10:07:09;;;;;;;13.73;4.43;;;25.90;61.40;;;;;;5072054;28;20319;-76
2022/05/15 10:09:40;;;;;;;15.50;4.78;;;26.00;60.60;;;;;;5072147;28;20048;-78
2022/05/15 10:12:28;;;;;;;16.70;5.07;;;26.20;61.30;;;;;;5054259;28;20053;-78
2022/05/15 10:14:57;;;;;;;16.55;4.15;;;26.00;57.80;;;;;;5072073;28;20501;-77
2022/05/15 10:17:24;;;;;;;16.60;4.80;;;25.80;58.50;;;;;;5074561;28;20209;-78
2022/05/15 10:19:53;;;;;;;14.80;4.90;;;25.70;58.30;;;;;;5075828;28;20369;-79
2022/05/15 10:22:31;;;;;;;16.17;5.05;;;25.50;57.40;;;;;;5073309;28;20044;-76
2022/05/15 10:25:16;;;;;;;16.50;4.50;;;25.30;58.80;;;;;;5064210;28;20073;-76
2022/05/15 10:27:49;;;;;;;13.82;4.00;;;25.40;58.10;;;;;;5037818;28;20041;-77
2022/05/15 10:30:24;;;;;;;19.52;5.05;;;25.50;58.10;;;;;;5053999;28;20072;-77
2022/05/15 10:32:57;;;;;;;11.27;3.70;;;25.60;58.00;;;;;;5075314;28;20115;-80
2022/05/15 10:35:57;;;;;;;12.90;3.92;;;25.80;55.60;;;;;;5075102;28;20048;-77
2022/05/15 10:38:57;;;;;;;12.98;4.00;;;25.80;56.00;;;;;;5027107;28;20044;-78
2022/05/15 10:41:38;;;;;;;12.25;4.60;;;25.60;57.10;;;;;;5067621;28;20098;-77
2022/05/15 10:44:25;;;;;;;10.43;3.55;;;25.80;55.60;;;;;;5055283;28;20099;-78
2022/05/15 10:47:07;;;;;;;11.15;4.40;;;25.90;57.20;;;;;;5055108;28;20064;-77
2022/05/15 10:49:54;;;;;;;13.60;4.05;;;26.10;56.50;;;;;;5053941;28;20050;-79
2022/05/15 10:52:38;;;;;;;14.23;4.10;;;26.30;56.20;;;;;;5055079;28;20055;-77
2022/05/15 10:58:48;;;;;;;13.27;3.88;;;26.40;54.60;;;;;;5074576;28;20370;-78
2022/05/15 11:01:46;;;;;;;16.67;4.20;;;26.30;52.90;;;;;;5057395;28;20048;-78
2022/05/15 11:04:33;;;;;;;16.67;4.10;;;26.10;53.10;;;;;;5074635;28;20136;-77
2022/05/15 11:07:13;;;;;;;12.70;4.07;;;26.10;52.50;;;;;;5075018;28;20423;-79
2022/05/15 11:10:22;;;;;;;10.65;4.28;;;26.00;51.80;;;;;;5074759;28;20053;-77
2022/05/15 11:13:12;;;;;;;14.15;4.90;;;26.00;52.40;;;;;;5056608;28;20056;-77
2022/05/15 11:15:37;;;;;;;15.25;3.88;;;25.90;53.70;;;;;;5074645;28;20048;-79
2022/05/15 11:18:23;;;;;;;8.25;3.38;;;25.90;54.70;;;;;;5066992;28;20041;-85
2022/05/15 11:21:00;;;;;;;17.75;4.90;;;25.70;56.60;;;;;;5037525;28;20044;-77
2022/05/15 11:23:32;;;;;;;12.50;4.45;;;25.80;56.80;;;;;;5066502;28;20053;-77
2022/05/15 11:26:07;;;;;;;13.88;4.13;;;25.80;53.60;;;;;;5074547;28;20429;-78
2022/05/15 11:28:50;;;;;;;11.10;4.32;;;25.70;54.80;;;;;;5056158;28;20072;-77
2022/05/15 11:31:20;;;;;;;11.52;3.88;;;25.80;53.40;;;;;;5074226;28;20473;-78
2022/05/15 11:33:56;;;;;;;9.95;3.33;;;26.00;55.30;;;;;;5071631;28;20457;-76
2022/05/15 11:36:22;;;;;;;12.25;4.03;;;26.10;56.60;;;;;;5074418;28;20037;-79
2022/05/15 11:39:15;;;;;;;11.20;3.88;;;26.40;56.20;;;;;;5074238;28;20479;-78
2022/05/15 11:41:44;;;;;;;12.57;3.25;;;26.40;53.00;;;;;;5074232;28;20373;-79
2022/05/15 11:44:20;;;;;;;14.15;3.70;;;26.30;51.30;;;;;;5073976;28;20045;-78
2022/05/15 11:46:46;;;;;;;11.20;3.53;;;26.30;52.30;;;;;;5056553;28;20048;-79
2022/05/15 11:49:29;;;;;;;13.75;3.58;;;26.40;51.60;;;;;;5073546;28;20140;-79
2022/05/15 11:52:16;;;;;;;7.60;3.40;;;26.30;53.60;;;;;;5073886;28;20045;-77
2022/05/15 11:54:52;;;;;;;17.20;4.28;;;26.40;51.10;;;;;;5056103;28;20044;-76
2022/05/15 11:57:43;;;;;;;10.82;3.47;;;26.30;50.00;;;;;;5073765;28;20040;-77
2022/05/15 12:00:20;;;;;;;13.57;3.80;;;26.30;51.90;;;;;;5073849;28;20044;-77
2022/05/15 12:02:54;;;;;;;12.85;3.40;;;26.40;53.70;;;;;;5073760;28;20472;-77
2022/05/15 12:05:37;;;;;;;9.85;3.47;;;26.50;51.30;;;;;;5056344;28;20040;-76
2022/05/15 12:08:25;;;;;;;11.93;3.63;;;26.50;51.80;;;;;;5073994;28;20048;-77
2022/05/15 12:10:54;;;;;;;9.80;3.75;;;26.40;50.50;;;;;;5055920;28;20052;-76
2022/05/15 12:13:38;;;;;;;11.27;3.90;;;26.40;51.70;;;;;;5070558;28;20058;-77
2022/05/15 12:16:15;;;;;;;11.10;3.60;;;26.60;52.50;;;;;;5055892;28;20996;-77
2022/05/15 12:18:42;;;;;;;10.10;3.60;;;26.60;49.50;;;;;;5073502;28;20055;-77
2022/05/15 12:21:09;;;;;;;10.23;3.13;;;26.40;48.20;;;;;;5073635;28;20041;-77
2022/05/15 12:24:27;;;;;;;10.05;2.92;;;26.20;48.30;;;;;;5073246;28;20131;-77
2022/05/15 12:26:53;;;;;;;8.80;4.07;;;26.00;47.20;;;;;;5055749;28;20059;-78
2022/05/15 12:29:49;;;;;;;14.82;4.10;;;25.70;48.90;;;;;;5073177;28;20439;-76
2022/05/15 12:32:20;;;;;;;13.57;4.55;;;25.60;48.80;;;;;;5073324;28;20075;-77
2022/05/15 12:34:50;;;;;;;11.38;4.05;;;25.50;50.30;;;;;;5055762;28;20047;-76
2022/05/15 12:37:26;;;;;;;9.18;3.67;;;25.50;50.10;;;;;;5073138;28;20040;-76
2022/05/15 12:39:53;;;;;;;11.27;4.03;;;25.50;51.10;;;;;;5072212;28;20082;-78
2022/05/15 12:42:35;;;;;;;9.95;3.92;;;25.50;48.80;;;;;;5055567;28;20056;-76
2022/05/15 12:45:11;;;;;;;10.75;2.97;;;25.50;48.40;;;;;;5073183;28;20059;-78
2022/05/15 12:47:38;;;;;;;14.30;4.03;;;25.60;48.80;;;;;;5073157;28;20135;-78
2022/05/15 12:50:21;;;;;;;7.80;3.15;;;25.70;48.90;;;;;;5072988;28;20149;-76
2022/05/15 12:52:56;;;;;;;13.30;3.38;;;25.70;46.30;;;;;;5055576;28;20048;-78
2022/05/15 12:55:29;;;;;;;10.13;3.30;;;25.60;47.70;;;;;;5068848;28;20041;-77
2022/05/15 12:57:57;;;;;;;10.35;3.53;;;25.50;47.00;;;;;;5052875;28;20033;-77
2022/05/15 13:00:31;;;;;;;11.48;3.72;;;25.30;48.50;;;;;;5049943;28;20055;-77
2022/05/15 13:03:08;;;;;;;10.40;3.53;;;25.20;49.70;;;;;;5055265;28;20037;-76
2022/05/15 13:06:01;;;;;;;12.38;3.95;;;25.40;49.40;;;;;;5052946;28;20059;-75
2022/05/15 13:08:46;;;;;;;13.80;3.85;;;25.40;49.40;;;;;;5049244;28;20144;-74
2022/05/15 13:11:25;;;;;;;14.82;4.22;;;25.40;49.30;;;;;;5051958;28;20045;-79
2022/05/15 13:13:57;;;;;;;8.63;2.80;;;25.30;49.30;;;;;;5035249;28;20045;-78
2022/05/15 13:16:27;;;;;;;15.60;3.88;;;25.20;50.20;;;;;;5052569;28;20037;-76
2022/05/15 13:18:53;;;;;;;8.70;2.72;;;25.10;48.40;;;;;;5035030;28;20056;-76